| time (UTC) | temp F | wind direction | speed MPH | gust MPH | rain 1hr in | rain 24hr in | rain mn in | humidity % | barometer mb |
| 20260905122525 | 78 | 222 | 4.0 | 6.0 | 0.00 | 0.37 | 0.01 | 94 | 1014.4 |
| 20260905122028 | 78 | 197 | 4.0 | 6.0 | 0.00 | 0.37 | 0.01 | 94 | 1014.5 |
| 20260905121559 | 78 | 221 | 3.0 | 5.0 | 0.00 | 0.37 | 0.01 | 94 | 1014.5 |
| 20260905121023 | 78 | 225 | 3.0 | 5.0 | 0.00 | 0.37 | 0.01 | 94 | 1014.5 |
| 20260905120526 | 78 | 225 | 1.0 | 5.0 | 0.00 | 0.37 | 0.01 | 94 | 1014.4 |
| 20260905115524 | 78 | 0 | 0.0 | 0.0 | 0.00 | 0.37 | 0.01 | 94 | 1014.2 |
| 20260905115021 | 78 | 0 | 0.0 | 0.0 | 0.00 | 0.37 | 0.01 | 94 | 1014.2 |
| 20260905114600 | 78 | 0 | 0.0 | 0.0 | 0.00 | 0.37 | 0.01 | 94 | 1014.1 |
| 20260905114024 | 78 | 0 | 0.0 | 0.0 | 0.00 | 0.37 | 0.01 | 94 | 1014.0 |
| 20260905113528 | 78 | 0 | 0.0 | 0.0 | 0.00 | 0.37 | 0.01 | 94 | 1014.0 |
| 20260905113054 | 78 | 0 | 0.0 | 0.0 | 0.00 | 0.37 | 0.01 | 94 | 1013.9 |
| 20260905112525 | 78 | 0 | 0.0 | 0.0 | 0.00 | 0.37 | 0.01 | 94 | 1013.9 |
| 20260905112025 | 77 | 0 | 0.0 | 0.0 | 0.00 | 0.37 | 0.01 | 94 | 1013.8 |
| 20260905111646 | 77 | 0 | 0.0 | 0.0 | 0.00 | 0.37 | 0.01 | 94 | 1013.9 |
| 20260905111023 | 77 | 0 | 0.0 | 0.0 | 0.00 | 0.37 | 0.01 | 94 | 1013.8 |
| 20260905110526 | 77 | 0 | 0.0 | 0.0 | 0.00 | 0.37 | 0.01 | 94 | 1013.7 |
| 20260905110051 | 77 | 0 | 0.0 | 0.0 | 0.00 | 0.37 | 0.01 | 94 | 1013.6 |
| 20260905105524 | 77 | 0 | 0.0 | 0.0 | 0.00 | 0.37 | 0.01 | 94 | 1013.6 |
| 20260905105024 | 77 | 0 | 0.0 | 0.0 | 0.00 | 0.37 | 0.01 | 94 | 1013.5 |
| 20260905104547 | 77 | 0 | 0.0 | 0.0 | 0.00 | 0.37 | 0.01 | 94 | 1013.6 |
| 20260905104024 | 76 | 0 | 0.0 | 0.0 | 0.00 | 0.37 | 0.01 | 94 | 1013.5 |
| 20260905103524 | 76 | 0 | 0.0 | 0.0 | 0.00 | 0.37 | 0.01 | 94 | 1013.5 |
| 20260905103044 | 76 | 0 | 0.0 | 0.0 | 0.00 | 0.37 | 0.01 | 94 | 1013.4 |
| 20260905102524 | 76 | 0 | 0.0 | 0.0 | 0.00 | 0.37 | 0.01 | 94 | 1013.4 |
| 20260905102025 | 76 | 0 | 0.0 | 0.0 | 0.00 | 0.37 | 0.01 | 94 | 1013.4 |
| 20260905101555 | 76 | 0 | 0.0 | 0.0 | 0.00 | 0.37 | 0.01 | 94 | 1013.4 |
| 20260905101028 | 76 | 0 | 0.0 | 0.0 | 0.00 | 0.37 | 0.01 | 94 | 1013.4 |
| 20260905100524 | 76 | 0 | 0.0 | 0.0 | 0.00 | 0.37 | 0.01 | 93 | 1013.4 |
| 20260905100057 | 76 | 0 | 0.0 | 0.0 | 0.00 | 0.37 | 0.01 | 93 | 1013.4 |
| 20260905095523 | 76 | 0 | 0.0 | 0.0 | 0.00 | 0.37 | 0.01 | 93 | 1013.4 |
| 20260905095027 | 76 | 0 | 0.0 | 0.0 | 0.00 | 0.37 | 0.01 | 93 | 1013.3 |
| 20260905094552 | 76 | 0 | 0.0 | 0.0 | 0.00 | 0.37 | 0.01 | 93 | 1013.3 |
| 20260905094024 | 76 | 0 | 0.0 | 0.0 | 0.00 | 0.37 | 0.01 | 93 | 1013.3 |
| 20260905093525 | 76 | 0 | 0.0 | 0.0 | 0.00 | 0.37 | 0.01 | 93 | 1013.4 |
| 20260905093054 | 76 | 0 | 0.0 | 0.0 | 0.00 | 0.37 | 0.01 | 93 | 1013.3 |
| 20260905092526 | 76 | 0 | 0.0 | 0.0 | 0.00 | 0.37 | 0.01 | 93 | 1013.3 |
| 20260905092024 | 76 | 0 | 0.0 | 0.0 | 0.00 | 0.37 | 0.01 | 93 | 1013.6 |
| 20260905091556 | 76 | 0 | 0.0 | 0.0 | 0.00 | 0.37 | 0.01 | 93 | 1013.6 |
| 20260905091026 | 76 | 0 | 0.0 | 0.0 | 0.00 | 0.37 | 0.01 | 93 | 1013.5 |
| 20260905090523 | 76 | 0 | 0.0 | 0.0 | 0.00 | 0.37 | 0.01 | 93 | 1013.6 |
| 20260905090051 | 76 | 0 | 0.0 | 0.0 | 0.00 | 0.37 | 0.01 | 93 | 1013.6 |
| 20260905085523 | 76 | 0 | 0.0 | 0.0 | 0.00 | 0.37 | 0.01 | 93 | 1013.6 |
| 20260905085024 | 77 | 0 | 0.0 | 0.0 | 0.00 | 0.37 | 0.01 | 92 | 1013.6 |
| 20260905084548 | 77 | 0 | 0.0 | 0.0 | 0.00 | 0.37 | 0.01 | 92 | 1013.6 |
| 20260905084024 | 77 | 0 | 0.0 | 0.0 | 0.00 | 0.37 | 0.01 | 93 | 1013.5 |
| 20260905083526 | 77 | 0 | 0.0 | 0.0 | 0.00 | 0.37 | 0.01 | 92 | 1013.5 |
| 20260905083044 | 77 | 0 | 0.0 | 0.0 | 0.00 | 0.37 | 0.01 | 93 | 1013.5 |
| 20260905082523 | 78 | 0 | 0.0 | 0.0 | 0.00 | 0.37 | 0.01 | 93 | 1013.3 |
| 20260905082025 | 78 | 0 | 0.0 | 0.0 | 0.00 | 0.37 | 0.01 | 93 | 1013.5 |
| 20260905081552 | 78 | 0 | 0.0 | 0.0 | 0.00 | 0.37 | 0.01 | 93 | 1013.4 |
| 20260905081023 | 78 | 0 | 0.0 | 0.0 | 0.00 | 0.37 | 0.01 | 93 | 1013.3 |
| 20260905080524 | 78 | 0 | 0.0 | 0.0 | 0.00 | 0.37 | 0.01 | 93 | 1013.3 |
| 20260905080051 | 78 | 0 | 0.0 | 0.0 | 0.00 | 0.37 | 0.01 | 93 | 1013.3 |
| 20260905075524 | 78 | 0 | 0.0 | 0.0 | 0.00 | 0.37 | 0.01 | 93 | 1013.2 |
| 20260905075023 | 78 | 0 | 0.0 | 4.0 | 0.00 | 0.37 | 0.01 | 93 | 1013.3 |
| 20260905074547 | 78 | 0 | 0.0 | 4.0 | 0.00 | 0.37 | 0.01 | 93 | 1013.2 |
| 20260905074025 | 78 | 167 | 2.0 | 4.0 | 0.00 | 0.37 | 0.01 | 93 | 1013.3 |
| 20260905073523 | 78 | 167 | 2.0 | 5.0 | 0.00 | 0.37 | 0.01 | 93 | 1013.3 |
| 20260905073043 | 78 | 167 | 3.0 | 5.0 | 0.00 | 0.37 | 0.01 | 93 | 1013.3 |
| 20260905072525 | 78 | 167 | 2.0 | 4.0 | 0.00 | 0.37 | 0.01 | 93 | 1013.3 |
| 20260905072024 | 78 | 192 | 2.0 | 5.0 | 0.00 | 0.37 | 0.01 | 94 | 1013.3 |
| 20260905071553 | 78 | 197 | 2.0 | 5.0 | 0.00 | 0.37 | 0.01 | 93 | 1013.3 |
| 20260905071026 | 78 | 200 | 3.0 | 5.0 | 0.00 | 0.37 | 0.01 | 93 | 1013.4 |
| 20260905070528 | 78 | 116 | 0.0 | 3.0 | 0.00 | 0.37 | 0.01 | 93 | 1013.4 |
| 20260905070057 | 78 | 116 | 1.0 | 3.0 | 0.01 | 0.37 | 0.01 | 93 | 1013.6 |
| 20260905065524 | 78 | 0 | 0.0 | 0.0 | 0.01 | 0.37 | 0.01 | 93 | 1013.5 |
| 20260905065023 | 78 | 0 | 0.0 | 3.0 | 0.01 | 0.37 | 0.01 | 93 | 1013.6 |
| 20260905064602 | 78 | 0 | 0.0 | 4.0 | 0.01 | 0.37 | 0.01 | 93 | 1013.6 |
| 20260905064024 | 78 | 115 | 2.0 | 4.0 | 0.01 | 0.37 | 0.01 | 93 | 1013.6 |
| 20260905063526 | 78 | 115 | 0.0 | 3.0 | 0.01 | 0.37 | 0.01 | 93 | 1013.8 |
| 20260905063056 | 78 | 0 | 1.0 | 3.0 | 0.01 | 0.37 | 0.01 | 93 | 1013.6 |
| 20260905062526 | 77 | 123 | 1.0 | 2.0 | 0.01 | 0.37 | 0.01 | 93 | 1013.7 |
| 20260905062026 | 77 | 0 | 0.0 | 2.0 | 0.01 | 0.37 | 0.01 | 93 | 1013.7 |
| 20260905061548 | 77 | 123 | 1.0 | 2.0 | 0.01 | 0.37 | 0.01 | 93 | 1013.8 |
| 20260905061023 | 78 | 0 | 0.0 | 0.0 | 0.01 | 0.37 | 0.01 | 92 | 1013.8 |
| 20260905060524 | 78 | 0 | 0.0 | 0.0 | 0.01 | 0.37 | 0.01 | 92 | 1013.8 |
| 20260905060052 | 78 | 0 | 0.0 | 0.0 | 0.00 | 0.36 | 0.00 | 92 | 1013.9 |
| 20260905055525 | 78 | 0 | 0.0 | 0.0 | 0.00 | 0.36 | 0.00 | 92 | 1013.9 |
| 20260905055029 | 78 | 0 | 0.0 | 0.0 | 0.00 | 0.36 | 0.00 | 92 | 1013.9 |
| 20260905054551 | 78 | 0 | 0.0 | 0.0 | 0.00 | 0.36 | 0.00 | 92 | 1013.8 |
| 20260905054028 | 78 | 0 | 0.0 | 0.0 | 0.00 | 0.36 | 0.00 | 92 | 1014.0 |
| 20260905053524 | 78 | 0 | 0.0 | 0.0 | 0.00 | 0.36 | 0.00 | 92 | 1014.2 |
| 20260905053054 | 78 | 0 | 0.0 | 3.0 | 0.00 | 0.36 | 0.00 | 92 | 1014.2 |
| 20260905052524 | 78 | 0 | 0.0 | 4.0 | 0.00 | 0.36 | 0.00 | 92 | 1014.2 |
| 20260905052025 | 78 | 175 | 1.0 | 4.0 | 0.00 | 0.36 | 0.00 | 92 | 1014.2 |
| 20260905051554 | 78 | 173 | 2.0 | 4.0 | 0.00 | 0.36 | 0.00 | 92 | 1014.3 |
| 20260905051023 | 78 | 226 | 1.0 | 4.0 | 0.00 | 0.36 | 0.00 | 91 | 1014.4 |
| 20260905050527 | 78 | 317 | 1.0 | 4.0 | 0.00 | 0.36 | 0.00 | 91 | 1014.3 |
| 20260905050058 | 78 | 317 | 2.0 | 4.0 | 0.00 | 0.36 | 0.00 | 91 | 1014.4 |
| 20260905045525 | 78 | 82 | 2.0 | 4.0 | 0.00 | 0.36 | 0.00 | 91 | 1014.4 |
| 20260905045026 | 78 | 0 | 0.0 | 2.0 | 0.00 | 0.36 | 0.00 | 91 | 1014.6 |
| 20260905044551 | 78 | 82 | 0.0 | 2.0 | 0.00 | 0.36 | 0.00 | 91 | 1014.5 |
| 20260905044024 | 78 | 0 | 0.0 | 0.0 | 0.00 | 0.36 | 0.00 | 90 | 1014.5 |
| 20260905043524 | 78 | 0 | 0.0 | 2.0 | 0.00 | 0.36 | 0.00 | 90 | 1014.6 |
| 20260905043046 | 79 | 0 | 0.0 | 2.0 | 0.00 | 0.36 | 0.00 | 90 | 1014.7 |
| 20260905042527 | 79 | 82 | 1.0 | 6.0 | 0.00 | 0.36 | 0.00 | 90 | 1014.5 |
| 20260905042025 | 79 | 0 | 0.0 | 6.0 | 0.00 | 0.36 | 0.00 | 90 | 1014.6 |
| 20260905041556 | 79 | 82 | 2.0 | 10.0 | 0.00 | 0.36 | 0.00 | 90 | 1014.6 |
| 20260905041024 | 79 | 104 | 5.0 | 10.0 | 0.00 | 0.36 | 0.00 | 91 | 1014.4 |
| 20260905040524 | 78 | 130 | 8.0 | 11.0 | 0.00 | 0.36 | 0.00 | 92 | 1014.6 |
| 20260905040051 | 78 | 134 | 7.0 | 14.0 | 0.00 | 0.36 | 0.00 | 93 | 1014.6 |
| 20260905035523 | 77 | 156 | 6.0 | 15.0 | 0.00 | 0.36 | 0.36 | 94 | 1014.8 |
| 20260905035024 | 77 | 147 | 10.0 | 15.0 | 0.00 | 0.36 | 0.36 | 94 | 1014.9 |
| 20260905034543 | 78 | 150 | 9.0 | 14.0 | 0.00 | 0.36 | 0.36 | 94 | 1014.8 |
| 20260905034024 | 77 | 151 | 9.0 | 13.0 | 0.00 | 0.36 | 0.36 | 95 | 1014.9 |
| 20260905033524 | 77 | 173 | 5.0 | 9.0 | 0.00 | 0.36 | 0.36 | 94 | 1015.1 |
| 20260905033042 | 77 | 167 | 4.0 | 6.0 | 0.00 | 0.36 | 0.36 | 94 | 1015.1 |
| 20260905032525 | 76 | 130 | 3.0 | 8.0 | 0.00 | 0.36 | 0.36 | 94 | 1015.1 |
| 20260905032026 | 76 | 137 | 4.0 | 8.0 | 0.00 | 0.36 | 0.36 | 94 | 1015.2 |
| 20260905031555 | 76 | 103 | 3.0 | 4.0 | 0.00 | 0.36 | 0.36 | 94 | 1015.3 |
| 20260905031025 | 76 | 65 | 0.0 | 2.0 | 0.00 | 0.36 | 0.36 | 94 | 1015.3 |
| 20260905030524 | 76 | 65 | 0.0 | 2.0 | 0.00 | 0.36 | 0.36 | 94 | 1015.3 |
| 20260905030052 | 76 | 0 | 0.0 | 4.0 | 0.00 | 0.36 | 0.36 | 94 | 1015.3 |
| 20260905025525 | 76 | 65 | 1.0 | 6.0 | 0.00 | 0.36 | 0.36 | 94 | 1015.3 |
| 20260905025023 | 76 | 65 | 2.0 | 6.0 | 0.00 | 0.36 | 0.36 | 94 | 1015.4 |
| 20260905024550 | 76 | 77 | 2.0 | 4.0 | 0.00 | 0.36 | 0.36 | 94 | 1015.4 |
| 20260905024024 | 76 | 0 | 1.0 | 3.0 | 0.00 | 0.36 | 0.36 | 94 | 1015.4 |
| 20260905023525 | 76 | 336 | 1.0 | 3.0 | 0.00 | 0.36 | 0.36 | 94 | 1015.3 |
| 20260905023043 | 76 | 0 | 0.0 | 0.0 | 0.00 | 0.36 | 0.36 | 94 | 1015.4 |
| 20260905022525 | 76 | 0 | 0.0 | 0.0 | 0.00 | 0.36 | 0.36 | 94 | 1015.4 |
| 20260905022024 | 76 | 0 | 0.0 | 0.0 | 0.00 | 0.36 | 0.36 | 94 | 1015.5 |
| 20260905021553 | 76 | 0 | 0.0 | 0.0 | 0.00 | 0.36 | 0.36 | 94 | 1015.5 |
| 20260905021024 | 76 | 0 | 0.0 | 0.0 | 0.00 | 0.36 | 0.36 | 94 | 1015.6 |
| 20260905020523 | 76 | 0 | 0.0 | 0.0 | 0.00 | 0.36 | 0.36 | 94 | 1015.6 |
| 20260905020051 | 76 | 0 | 0.0 | 0.0 | 0.00 | 0.36 | 0.36 | 94 | 1015.4 |
| 20260905015527 | 76 | 0 | 0.0 | 0.0 | 0.00 | 0.36 | 0.36 | 94 | 1015.4 |
| 20260905015024 | 76 | 0 | 0.0 | 0.0 | 0.00 | 0.36 | 0.36 | 94 | 1015.5 |
| 20260905014554 | 76 | 0 | 0.0 | 0.0 | 0.00 | 0.36 | 0.36 | 94 | 1015.5 |
| 20260905014023 | 76 | 0 | 0.0 | 0.0 | 0.00 | 0.36 | 0.36 | 94 | 1015.4 |
| 20260905013528 | 76 | 0 | 0.0 | 0.0 | 0.00 | 0.36 | 0.36 | 93 | 1015.1 |
| 20260905013042 | 76 | 0 | 0.0 | 0.0 | 0.00 | 0.36 | 0.36 | 93 | 1015.1 |
| 20260905012524 | 76 | 0 | 0.0 | 0.0 | 0.00 | 0.36 | 0.36 | 93 | 1015.1 |
| 20260905012025 | 76 | 0 | 0.0 | 0.0 | 0.00 | 0.36 | 0.36 | 93 | 1015.1 |
| 20260905011556 | 76 | 0 | 0.0 | 1.0 | 0.00 | 0.36 | 0.36 | 93 | 1015.1 |
| 20260905011023 | 76 | 0 | 0.0 | 3.0 | 0.00 | 0.36 | 0.36 | 93 | 1014.9 |
| 20260905010525 | 76 | 0 | 1.0 | 4.0 | 0.00 | 0.36 | 0.36 | 93 | 1015.0 |
| 20260905010048 | 76 | 0 | 1.0 | 4.0 | 0.00 | 0.36 | 0.36 | 93 | 1014.8 |
| 20260905005525 | 76 | 121 | 2.0 | 6.0 | 0.00 | 0.36 | 0.36 | 93 | 1014.7 |
| 20260905005024 | 76 | 122 | 2.0 | 6.0 | 0.00 | 0.36 | 0.36 | 93 | 1014.6 |
| 20260905004550 | 75 | 126 | 3.0 | 5.0 | 0.00 | 0.36 | 0.36 | 93 | 1014.6 |
| 20260905004024 | 75 | 73 | 1.0 | 3.0 | 0.00 | 0.36 | 0.36 | 93 | 1014.5 |
| 20260905003528 | 75 | 0 | 0.0 | 0.0 | 0.00 | 0.36 | 0.36 | 93 | 1014.6 |
| 20260905003046 | 75 | 0 | 0.0 | 0.0 | 0.00 | 0.36 | 0.36 | 93 | 1014.5 |
| 20260905002525 | 75 | 0 | 0.0 | 0.0 | 0.00 | 0.36 | 0.36 | 93 | 1014.7 |
| 20260905002024 | 75 | 0 | 0.0 | 0.0 | 0.00 | 0.36 | 0.36 | 93 | 1014.8 |
| 20260905001543 | 75 | 0 | 0.0 | 2.0 | 0.00 | 0.36 | 0.36 | 93 | 1014.8 |
| 20260905001023 | 75 | 0 | 0.0 | 3.0 | 0.00 | 0.36 | 0.36 | 93 | 1014.7 |
| 20260905000525 | 75 | 0 | 0.0 | 3.0 | 0.00 | 0.36 | 0.36 | 93 | 1014.8 |
| 20260905000049 | 75 | 34 | 2.0 | 5.0 | 0.00 | 0.36 | 0.36 | 93 | 1014.8 |
| 20260904235524 | 75 | 60 | 0.0 | 7.0 | 0.00 | 0.36 | 0.36 | 93 | 1014.9 |
| 20260904235028 | 75 | 63 | 2.0 | 7.0 | 0.00 | 0.36 | 0.36 | 93 | 1014.8 |
| 20260904234550 | 75 | 76 | 3.0 | 9.0 | 0.00 | 0.36 | 0.36 | 93 | 1014.9 |
| 20260904234024 | 75 | 84 | 3.0 | 9.0 | 0.00 | 0.36 | 0.36 | 92 | 1014.8 |
| 20260904233526 | 75 | 63 | 5.0 | 10.0 | 0.00 | 0.36 | 0.36 | 92 | 1014.7 |
| 20260904233045 | 75 | 82 | 4.0 | 10.0 | 0.00 | 0.36 | 0.36 | 92 | 1014.8 |
| 20260904232526 | 75 | 98 | 7.0 | 9.0 | 0.01 | 0.36 | 0.36 | 92 | 1014.7 |
| 20260904232024 | 76 | 0 | 0.0 | 3.0 | 0.01 | 0.36 | 0.36 | 92 | 1014.5 |
| 20260904231554 | 75 | 0 | 1.0 | 4.0 | 0.02 | 0.36 | 0.36 | 91 | 1014.5 |
| 20260904231025 | 75 | 51 | 1.0 | 4.0 | 0.02 | 0.36 | 0.36 | 91 | 1014.5 |
| 20260904230524 | 76 | 55 | 2.0 | 4.0 | 0.02 | 0.36 | 0.36 | 91 | 1014.7 |
| 20260904230053 | 76 | 0 | 0.0 | 6.0 | 0.02 | 0.36 | 0.36 | 91 | 1014.6 |
| 20260904225522 | 76 | 80 | 3.0 | 7.0 | 0.02 | 0.36 | 0.36 | 91 | 1014.8 |
| 20260904225024 | 76 | 83 | 3.0 | 8.0 | 0.02 | 0.36 | 0.36 | 90 | 1014.7 |
| 20260904224551 | 76 | 99 | 4.0 | 8.0 | 0.04 | 0.36 | 0.36 | 90 | 1014.8 |
| 20260904224025 | 77 | 76 | 1.0 | 8.0 | 0.06 | 0.36 | 0.36 | 90 | 1014.9 |
| 20260904223523 | 77 | 73 | 2.0 | 9.0 | 0.06 | 0.36 | 0.36 | 89 | 1014.8 |
| 20260904223051 | 77 | 97 | 6.0 | 10.0 | 0.06 | 0.36 | 0.36 | 88 | 1014.5 |
| 20260904222521 | 77 | 129 | 6.0 | 12.0 | 0.05 | 0.35 | 0.35 | 88 | 1014.5 |
| 20260904222024 | 78 | 107 | 8.0 | 12.0 | 0.24 | 0.35 | 0.35 | 89 | 1014.5 |
| 20260904221549 | 78 | 94 | 9.0 | 11.0 | 0.34 | 0.34 | 0.34 | 89 | 1014.7 |
| 20260904221024 | 79 | 122 | 5.0 | 16.0 | 0.34 | 0.34 | 0.34 | 88 | 1014.4 |
| 20260904220524 | 79 | 118 | 9.0 | 16.0 | 0.34 | 0.34 | 0.34 | 88 | 1014.6 |
| 20260904220105 | 80 | 136 | 8.0 | 12.0 | 0.34 | 0.34 | 0.34 | 88 | 1014.7 |
| 20260904215525 | 80 | 0 | 0.0 | 10.0 | 0.34 | 0.34 | 0.34 | 88 | 1014.7 |
| 20260904215024 | 81 | 0 | 0.0 | 0.0 | 0.34 | 0.34 | 0.34 | 88 | 1014.5 |
| 20260904214546 | 82 | 0 | 0.0 | 0.0 | 0.31 | 0.31 | 0.31 | 88 | 1014.1 |
| 20260904214024 | 82 | 0 | 0.0 | 4.0 | 0.30 | 0.30 | 0.30 | 87 | 1013.9 |
| 20260904213522 | 84 | 0 | 0.0 | 16.0 | 0.30 | 0.30 | 0.30 | 85 | 1013.3 |
| 20260904213045 | 85 | 33 | 1.0 | 17.0 | 0.30 | 0.30 | 0.30 | 81 | 1013.0 |
| 20260904212524 | 86 | 323 | 4.0 | 17.0 | 0.30 | 0.30 | 0.30 | 78 | 1013.2 |
| 20260904212024 | 88 | 202 | 12.0 | 17.0 | 0.06 | 0.06 | 0.06 | 77 | 1013.5 |
| 20260904211551 | 89 | 198 | 8.0 | 20.0 | 0.00 | 0.00 | 0.00 | 75 | 1013.4 |
| 20260904211024 | 91 | 217 | 10.0 | 20.0 | 0.00 | 0.00 | 0.00 | 70 | 1013.3 |
| 20260904210524 | 91 | 171 | 6.0 | 12.0 | 0.00 | 0.00 | 0.00 | 70 | 1013.3 |
| 20260904210057 | 91 | 161 | 7.0 | 12.0 | 0.00 | 0.00 | 0.00 | 68 | 1013.1 |
| 20260904205525 | 91 | 156 | 6.0 | 11.0 | 0.00 | 0.00 | 0.00 | 68 | 1013.0 |
| 20260904205028 | 91 | 166 | 8.0 | 11.0 | 0.00 | 0.00 | 0.00 | 68 | 1013.0 |
| 20260904204550 | 91 | 174 | 7.0 | 11.0 | 0.00 | 0.00 | 0.00 | 68 | 1013.1 |
| 20260904204025 | 92 | 161 | 7.0 | 12.0 | 0.00 | 0.00 | 0.00 | 67 | 1013.1 |
| 20260904203524 | 92 | 171 | 8.0 | 14.0 | 0.00 | 0.00 | 0.00 | 66 | 1013.2 |
| 20260904203046 | 92 | 122 | 9.0 | 14.0 | 0.00 | 0.00 | 0.00 | 67 | 1012.9 |
| 20260904202524 | 92 | 121 | 8.0 | 12.0 | 0.00 | 0.00 | 0.00 | 68 | 1012.9 |
| 20260904202028 | 91 | 0 | 0.0 | 0.0 | 0.00 | 0.00 | 0.00 | 69 | 1013.0 |
| 20260904201545 | 91 | 0 | 0.0 | 0.0 | 0.00 | 0.00 | 0.00 | 68 | 1013.0 |
| 20260904201025 | 91 | 0 | 0.0 | 0.0 | 0.00 | 0.00 | 0.00 | 67 | 1013.0 |
| 20260904200527 | 91 | 0 | 0.0 | 9.0 | 0.00 | 0.00 | 0.00 | 68 | 1013.0 |
| 20260904200116 | 91 | 0 | 1.0 | 9.0 | 0.00 | 0.00 | 0.00 | 67 | 1013.1 |
| 20260904195525 | 92 | 0 | 0.0 | 0.0 | 0.00 | 0.00 | 0.00 | 67 | 1013.2 |
| 20260904195023 | 92 | 0 | 0.0 | 0.0 | 0.00 | 0.00 | 0.00 | 66 | 1013.3 |
| 20260904194630 | 92 | 0 | 0.0 | 0.0 | 0.00 | 0.00 | 0.00 | 67 | 1013.3 |
| 20260904194025 | 92 | 0 | 0.0 | 0.0 | 0.00 | 0.00 | 0.00 | 64 | 1013.5 |
| 20260904193620 | 92 | 0 | 0.0 | 0.0 | 0.00 | 0.00 | 0.00 | 63 | 1013.6 |
| 20260904193045 | 91 | 0 | 0.0 | 0.0 | 0.00 | 0.00 | 0.00 | 62 | 1013.7 |
| 20260904192525 | 91 | 0 | 0.0 | 10.0 | 0.00 | 0.00 | 0.00 | 65 | 1013.7 |
| 20260904192025 | 91 | 0 | 0.0 | 10.0 | 0.00 | 0.00 | 0.00 | 67 | 1013.8 |
| 20260904191607 | 91 | 180 | 6.0 | 10.0 | 0.00 | 0.00 | 0.00 | 67 | 1013.8 |
| 20260904191024 | 91 | 0 | 0.0 | 5.0 | 0.00 | 0.00 | 0.00 | 66 | 1013.9 |
| 20260904190525 | 91 | 0 | 2.0 | 5.0 | 0.00 | 0.00 | 0.00 | 67 | 1014.0 |
| 20260904190054 | 91 | 0 | 0.0 | 0.0 | 0.00 | 0.00 | 0.00 | 69 | 1014.0 |
| 20260904185526 | 91 | 0 | 0.0 | 0.0 | 0.00 | 0.00 | 0.00 | 68 | 1014.1 |
| 20260904185025 | 91 | 0 | 0.0 | 0.0 | 0.00 | 0.00 | 0.00 | 67 | 1014.2 |
| 20260904184554 | 91 | 0 | 0.0 | 0.0 | 0.00 | 0.00 | 0.00 | 67 | 1014.3 |
| 20260904184024 | 91 | 0 | 0.0 | 11.0 | 0.00 | 0.00 | 0.00 | 68 | 1014.3 |
| 20260904183525 | 91 | 0 | 1.0 | 11.0 | 0.00 | 0.00 | 0.00 | 68 | 1014.5 |
| 20260904183054 | 91 | 195 | 6.0 | 11.0 | 0.00 | 0.00 | 0.00 | 69 | 1014.4 |
| 20260904182525 | 90 | 198 | 7.0 | 10.0 | 0.00 | 0.00 | 0.00 | 69 | 1014.5 |
| 20260904182028 | 90 | 223 | 6.0 | 9.0 | 0.00 | 0.00 | 0.00 | 68 | 1014.5 |
| 20260904181554 | 90 | 198 | 6.0 | 9.0 | 0.00 | 0.00 | 0.00 | 71 | 1014.8 |
| 20260904181026 | 90 | 213 | 2.0 | 9.0 | 0.00 | 0.00 | 0.00 | 72 | 1014.9 |
| 20260904180525 | 90 | 0 | 0.0 | 0.0 | 0.00 | 0.00 | 0.00 | 75 | 1014.9 |
| 20260904180053 | 89 | 0 | 0.0 | 0.0 | 0.00 | 0.00 | 0.00 | 74 | 1014.9 |
| 20260904175524 | 89 | 0 | 0.0 | 0.0 | 0.00 | 0.00 | 0.00 | 76 | 1015.1 |
| 20260904175024 | 89 | 0 | 0.0 | 0.0 | 0.00 | 0.00 | 0.00 | 76 | 1015.2 |
| 20260904174549 | 89 | 0 | 0.0 | 0.0 | 0.00 | 0.00 | 0.00 | 75 | 1015.2 |
| 20260904174024 | 89 | 0 | 0.0 | 0.0 | 0.00 | 0.00 | 0.00 | 76 | 1015.3 |
| 20260904173526 | 89 | 0 | 0.0 | 0.0 | 0.00 | 0.00 | 0.00 | 75 | 1015.3 |
| 20260904173100 | 89 | 0 | 0.0 | 0.0 | 0.00 | 0.00 | 0.00 | 75 | 1015.2 |
| 20260904172526 | 89 | 0 | 0.0 | 0.0 | 0.00 | 0.00 | 0.00 | 73 | 1015.3 |
| 20260904172026 | 89 | 0 | 0.0 | 0.0 | 0.00 | 0.00 | 0.00 | 76 | 1015.5 |
| 20260904171552 | 88 | 0 | 0.0 | 0.0 | 0.00 | 0.00 | 0.00 | 76 | 1015.6 |
| 20260904171023 | 88 | 0 | 0.0 | 0.0 | 0.00 | 0.00 | 0.00 | 76 | 1015.7 |
| 20260904170527 | 88 | 0 | 0.0 | 0.0 | 0.00 | 0.00 | 0.00 | 75 | 1015.7 |
| 20260904170050 | 88 | 0 | 0.0 | 0.0 | 0.00 | 0.00 | 0.00 | 74 | 1015.9 |
| 20260904165525 | 88 | 0 | 0.0 | 0.0 | 0.00 | 0.00 | 0.00 | 75 | 1015.8 |
| 20260904165025 | 88 | 0 | 0.0 | 0.0 | 0.00 | 0.00 | 0.00 | 73 | 1015.7 |
| 20260904164548 | 88 | 0 | 0.0 | 0.0 | 0.00 | 0.00 | 0.00 | 75 | 1015.6 |
| 20260904164030 | 88 | 0 | 0.0 | 0.0 | 0.00 | 0.00 | 0.00 | 76 | 1015.8 |
| 20260904163527 | 87 | 0 | 0.0 | 0.0 | 0.00 | 0.00 | 0.00 | 76 | 1015.9 |
| 20260904163044 | 87 | 0 | 0.0 | 0.0 | 0.00 | 0.00 | 0.00 | 76 | 1015.9 |
| 20260904162526 | 87 | 0 | 0.0 | 0.0 | 0.00 | 0.00 | 0.00 | 76 | 1016.0 |
| 20260904162029 | 87 | 0 | 0.0 | 0.0 | 0.00 | 0.00 | 0.00 | 77 | 1015.9 |
| 20260904161554 | 87 | 0 | 0.0 | 0.0 | 0.00 | 0.00 | 0.00 | 76 | 1016.1 |
| 20260904161025 | 87 | 0 | 0.0 | 0.0 | 0.00 | 0.00 | 0.00 | 77 | 1016.1 |
| 20260904160525 | 87 | 0 | 0.0 | 0.0 | 0.00 | 0.00 | 0.00 | 77 | 1016.2 |
| 20260904160050 | 86 | 0 | 0.0 | 0.0 | 0.00 | 0.00 | 0.00 | 77 | 1016.1 |
| 20260904155525 | 86 | 0 | 0.0 | 0.0 | 0.00 | 0.00 | 0.00 | 79 | 1016.2 |
| 20260904155023 | 86 | 0 | 0.0 | 0.0 | 0.00 | 0.00 | 0.00 | 79 | 1016.3 |
| 20260904154552 | 86 | 0 | 0.0 | 0.0 | 0.00 | 0.00 | 0.00 | 80 | 1016.4 |
| 20260904154023 | 86 | 0 | 0.0 | 0.0 | 0.00 | 0.00 | 0.00 | 79 | 1016.4 |
| 20260904153526 | 86 | 0 | 0.0 | 0.0 | 0.00 | 0.00 | 0.00 | 80 | 1016.5 |
| 20260904153044 | 86 | 0 | 0.0 | 0.0 | 0.00 | 0.00 | 0.00 | 80 | 1016.5 |
| 20260904152525 | 86 | 0 | 0.0 | 0.0 | 0.00 | 0.00 | 0.00 | 79 | 1016.4 |
| 20260904152024 | 86 | 0 | 0.0 | 0.0 | 0.00 | 0.00 | 0.00 | 80 | 1016.1 |
| 20260904151606 | 86 | 0 | 0.0 | 5.0 | 0.00 | 0.00 | 0.00 | 81 | 1016.2 |
| 20260904151024 | 86 | 0 | 0.0 | 6.0 | 0.00 | 0.00 | 0.00 | 82 | 1016.1 |
| 20260904150525 | 85 | 178 | 4.0 | 8.0 | 0.00 | 0.00 | 0.00 | 83 | 1016.1 |
| 20260904150045 | 85 | 169 | 5.0 | 9.0 | 0.00 | 0.00 | 0.00 | 83 | 1016.1 |
| 20260904145524 | 85 | 213 | 5.0 | 12.0 | 0.00 | 0.00 | 0.00 | 83 | 1016.1 |
| 20260904145024 | 85 | 179 | 6.0 | 12.0 | 0.00 | 0.00 | 0.00 | 83 | 1016.0 |
| 20260904144547 | 85 | 200 | 7.0 | 12.0 | 0.00 | 0.00 | 0.00 | 84 | 1016.0 |
| 20260904144025 | 84 | 203 | 0.0 | 6.0 | 0.00 | 0.00 | 0.00 | 84 | 1016.0 |
| 20260904143525 | 84 | 0 | 0.0 | 9.0 | 0.00 | 0.00 | 0.00 | 84 | 1016.1 |
| 20260904143054 | 84 | 0 | 1.0 | 10.0 | 0.00 | 0.00 | 0.00 | 84 | 1016.0 |
| 20260904142528 | 84 | 217 | 7.0 | 10.0 | 0.00 | 0.00 | 0.00 | 85 | 1015.9 |
| 20260904142025 | 84 | 202 | 4.0 | 10.0 | 0.00 | 0.00 | 0.00 | 86 | 1015.9 |
| 20260904141616 | 84 | 189 | 2.0 | 5.0 | 0.00 | 0.00 | 0.00 | 87 | 1016.0 |
| 20260904141028 | 84 | 175 | 2.0 | 5.0 | 0.00 | 0.00 | 0.00 | 87 | 1016.0 |
| 20260904140524 | 83 | 0 | 0.0 | 2.0 | 0.00 | 0.00 | 0.00 | 88 | 1016.1 |
| 20260904140101 | 83 | 0 | 0.0 | 3.0 | 0.00 | 0.00 | 0.00 | 89 | 1015.9 |
| 20260904135525 | 82 | 0 | 0.0 | 5.0 | 0.00 | 0.00 | 0.00 | 90 | 1015.8 |
| 20260904135025 | 82 | 163 | 2.0 | 5.0 | 0.00 | 0.00 | 0.00 | 90 | 1015.8 |
| 20260904134555 | 81 | 165 | 4.0 | 5.0 | 0.00 | 0.00 | 0.00 | 90 | 1015.8 |
| 20260904134024 | 81 | 173 | 2.0 | 5.0 | 0.00 | 0.00 | 0.00 | 91 | 1015.8 |
| 20260904133525 | 81 | 178 | 2.0 | 5.0 | 0.00 | 0.00 | 0.00 | 91 | 1015.7 |
| 20260904133057 | 81 | 165 | 1.0 | 4.0 | 0.00 | 0.00 | 0.00 | 92 | 1015.8 |
| 20260904132525 | 80 | 0 | 0.0 | 2.0 | 0.00 | 0.00 | 0.00 | 92 | 1015.7 |
| 20260904132025 | 80 | 0 | 0.0 | 2.0 | 0.00 | 0.00 | 0.00 | 93 | 1015.7 |
| 20260904131557 | 80 | 164 | 0.0 | 2.0 | 0.00 | 0.00 | 0.00 | 93 | 1015.6 |
| 20260904131028 | 79 | 164 | 0.0 | 2.0 | 0.00 | 0.00 | 0.00 | 93 | 1015.6 |
| 20260904130525 | 79 | 164 | 0.0 | 2.0 | 0.00 | 0.00 | 0.00 | 94 | 1015.6 |
| 20260904130048 | 79 | 0 | 0.0 | 0.0 | 0.00 | 0.00 | 0.00 | 94 | 1015.7 |
| 20260904125526 | 78 | 0 | 0.0 | 0.0 | 0.00 | 0.00 | 0.00 | 94 | 1015.6 |
| 20260904125024 | 78 | 0 | 0.0 | 0.0 | 0.00 | 0.00 | 0.00 | 94 | 1015.5 |
| 20260904124548 | 78 | 0 | 0.0 | 0.0 | 0.00 | 0.00 | 0.00 | 94 | 1015.6 |
| 20260904124026 | 78 | 0 | 0.0 | 0.0 | 0.00 | 0.00 | 0.00 | 94 | 1015.5 |
| 20260904123529 | 78 | 0 | 0.0 | 0.0 | 0.00 | 0.00 | 0.00 | 94 | 1015.4 |
| 20260904123050 | 77 | 0 | 0.0 | 0.0 | 0.00 | 0.00 | 0.00 | 94 | 1015.3 |